メインページ
METAR-TAF:

METAR-TAF

空港 :

バンコク, タイ

ドンムアン空港

緯度: 13-54-45N, 経度: 100-36-24E, 海抜: 4m

現時点の気象観測

当レポートは39分前の23:00(UTC)に作成
東/南東の風 2kt
気温 25°C
湿度 100%
気圧 1007 hPa
視程: 6000m
高度2000ftの雲はほとんどない
高度10000ftの千切れ雲あり

METAR: VTBD 232300Z 12002KT 6000 FEW020 BKN100 25/25 Q1007 NOSIG

時間: 06:39 (23:39 UTC)

予報

当レポートは6時間39分前の17:00(UTC)に作成
予報は23日の 18時(UTC)から 24日の 24時(UTC)まで有効
西の風 5kt
視程10km以上
高度2000ftの雲はほとんどない
24日の 02時(UTC)から 24日の 04時(UTC)まで徐々に
南/南西の風 8kt
24日の 08時(UTC)から 24日の 12時(UTC)まで一時的に
西の風 15kt
視程: 5000m
高度1800ftの雲はほとんどない, 積乱雲.
高度3000ftの雲は散在している
高度10000ftの千切れ雲あり
激しい雷雨, 雨
24日の 16時(UTC)から 24日の 18時(UTC)まで徐々に
西の風 5kt
高度2000ftの雲はほとんどない
高度10000ftの雲は散在している

TAF: VTBD 231700Z 2318/2424 27005KT 9999 FEW020 BECMG 2402/2404 21008KT TEMPO 2408/2412 26015KT 5000 TSRA FEW018CB SCT030 BKN100 BECMG 2416/2418 27005KT FEW020 SCT100

4,000以上の空港の気象観測と天気予報(METAR報とTAF報)

利用可能な観測所は地図上に黄色い丸と赤い丸で示す。

丸の上にカーソルを重ねると観測所名を参照できる。

次にクリックすると気象観測と天気予報を参照できる。

マップの切り替え:黒色「×」印の緑ボタンをクリックして拡大、「-」印の緑ボタンをクリックして縮小、緑色の三角印をクリックして隣りの地図に切り替え


METAR-TAF: